Terminal Aerodrome Forecast
Issued by NWS

Home | Current Version | Previous Version | Text Only | Print | Product List | Glossary On
Versions: 1 2 3 4 5 6 7 8 9 10 11 12 13 14
000
FTUS41 KBTV 112300
TAFSLK
TAF
KSLK 112327Z 1200/1224 00000KT P6SM SKC
     FM120800 00000KT 1/2SM FG VV001
     FM121200 24004KT P6SM SKC
     FM121800 24007KT P6SM SCT050=

USA.gov is the U.S. government's official web portal to all federal, state and local government web resources and services.